createdAt,value
2019-05-07T00:02:02.740Z,7.04
2019-05-07T00:04:34.672Z,7.13
2019-05-07T00:07:06.497Z,7.05
2019-05-07T00:09:38.522Z,6.91
2019-05-07T00:12:12.586Z,6.90
2019-05-07T00:14:58.244Z,6.94
2019-05-07T00:17:19.031Z,6.97
2019-05-07T00:19:52.608Z,6.86
2019-05-07T00:22:25.598Z,6.91
2019-05-07T00:24:57.880Z,6.79
2019-05-07T00:27:31.920Z,7.01
2019-05-07T00:30:03.248Z,6.93
2019-05-07T00:32:34.588Z,6.74
2019-05-07T00:35:08.273Z,6.76
2019-05-07T00:37:45.232Z,6.82
2019-05-07T00:40:32.799Z,6.78
2019-05-07T00:43:16.773Z,6.79
2019-05-07T00:46:02.289Z,6.79
2019-05-07T00:48:34.156Z,6.57
2019-05-07T00:51:28.244Z,6.51
2019-05-07T00:54:02.706Z,6.65
2019-05-07T00:56:33.829Z,6.76
2019-05-07T00:59:06.279Z,6.64
2019-05-07T01:01:38.405Z,6.63
2019-05-07T01:04:12.016Z,6.62
2019-05-07T01:06:43.633Z,6.60
2019-05-07T01:09:15.730Z,6.80
2019-05-07T01:11:47.672Z,6.53
2019-05-07T01:14:19.807Z,6.64
2019-05-07T01:16:52.894Z,6.73
2019-05-07T01:19:24.551Z,7.08
2019-05-07T01:21:56.602Z,7.26
2019-05-07T01:24:28.590Z,6.94
2019-05-07T01:27:02.143Z,7.00
2019-05-07T01:29:34.162Z,7.02
2019-05-07T01:32:12.965Z,7.16
2019-05-07T01:34:55.683Z,7.22
2019-05-07T01:37:26.913Z,6.96
2019-05-07T01:39:58.463Z,6.97
2019-05-07T01:42:32.557Z,7.12
2019-05-07T01:45:03.929Z,7.08
2019-05-07T01:47:35.274Z,7.19
2019-05-07T01:50:08.831Z,7.00
2019-05-07T01:52:42.722Z,7.04
2019-05-07T01:55:14.430Z,6.89
2019-05-07T01:57:46.021Z,7.09
2019-05-07T02:00:17.444Z,6.71
2019-05-07T02:02:57.135Z,6.49
2019-05-07T02:05:47.805Z,6.56
2019-05-07T02:08:38.703Z,6.55
2019-05-07T02:11:13.150Z,6.73
2019-05-07T02:13:45.887Z,6.79
2019-05-07T02:16:17.731Z,6.80
2019-05-07T02:18:49.554Z,6.81
2019-05-07T02:21:22.049Z,6.88
2019-05-07T02:23:54.344Z,6.81
2019-05-07T02:26:25.875Z,6.60
2019-05-07T02:28:57.467Z,6.60
2019-05-07T02:31:29.359Z,6.60
2019-05-07T02:34:02.745Z,6.79
2019-05-07T02:36:35.641Z,6.70
2019-05-07T02:39:16.030Z,6.81
2019-05-07T02:41:47.738Z,6.78
2019-05-07T02:44:19.281Z,6.54
2019-05-07T02:47:04.041Z,6.57
2019-05-07T02:49:46.395Z,6.48
2019-05-07T02:52:24.884Z,6.28
2019-05-07T02:55:07.334Z,6.31
2019-05-07T02:57:39.203Z,6.69
2019-05-07T03:00:14.079Z,6.42
2019-05-07T03:02:43.942Z,6.45
2019-05-07T03:05:15.551Z,6.55
2019-05-07T03:07:47.127Z,6.42
2019-05-07T03:10:19.229Z,6.47
2019-05-07T03:12:53.626Z,6.56
2019-05-07T03:15:28.271Z,6.67
2019-05-07T03:18:03.419Z,6.63
2019-05-07T03:20:44.101Z,6.33
2019-05-07T03:23:18.581Z,6.30
2019-05-07T03:26:08.690Z,6.57
2019-05-07T03:28:53.457Z,6.48
2019-05-07T03:31:46.604Z,6.46
2019-05-07T03:34:38.494Z,6.28
2019-05-07T03:37:13.570Z,6.07
2019-05-07T03:39:45.239Z,6.36
2019-05-07T03:42:17.227Z,6.09
2019-05-07T03:44:54.001Z,6.29
2019-05-07T03:47:33.316Z,6.11
2019-05-07T03:50:06.470Z,5.99
2019-05-07T03:52:37.852Z,6.06
2019-05-07T03:55:10.290Z,6.06
2019-05-07T03:57:43.666Z,5.98
2019-05-07T04:00:15.772Z,5.71
2019-05-07T04:02:47.554Z,5.88
2019-05-07T04:05:22.940Z,6.08
2019-05-07T04:07:54.110Z,5.94
2019-05-07T04:10:25.777Z,5.84
2019-05-07T04:12:57.143Z,5.82
2019-05-07T04:15:28.970Z,5.72
2019-05-07T04:18:03.495Z,5.85
2019-05-07T04:20:34.260Z,5.93
2019-05-07T04:23:06.189Z,5.86
2019-05-07T04:25:57.107Z,5.80
2019-05-07T04:29:05.826Z,5.96
2019-05-07T04:31:43.057Z,6.01
2019-05-07T04:34:19.374Z,5.83
2019-05-07T04:36:53.418Z,6.03
2019-05-07T04:39:24.462Z,6.09
2019-05-07T04:41:56.077Z,6.17
2019-05-07T04:44:28.270Z,6.42
2019-05-07T04:47:00.439Z,6.31
2019-05-07T04:49:33.236Z,6.31
2019-05-07T04:52:12.473Z,6.42
2019-05-07T04:54:43.657Z,6.65
2019-05-07T04:57:28.335Z,6.80
2019-05-07T05:00:03.330Z,6.91
2019-05-07T05:02:43.536Z,6.92
2019-05-07T05:05:15.576Z,6.95
2019-05-07T05:07:46.882Z,6.82
2019-05-07T05:10:18.622Z,6.89
2019-05-07T05:12:50.248Z,6.90
2019-05-07T05:15:22.334Z,6.97
2019-05-07T05:17:54.306Z,6.81
2019-05-07T05:20:35.040Z,7.06
2019-05-07T05:23:24.280Z,7.26
2019-05-07T05:25:55.967Z,6.71
2019-05-07T05:28:27.820Z,6.58
2019-05-07T05:31:03.302Z,6.63
2019-05-07T05:33:34.929Z,7.36
2019-05-07T05:36:06.518Z,7.36
2019-05-07T05:38:38.141Z,7.09
2019-05-07T05:41:12.300Z,7.03
2019-05-07T05:44:05.086Z,7.04
2019-05-07T05:46:37.160Z,6.82
2019-05-07T05:49:08.731Z,6.94
2019-05-07T05:52:02.147Z,6.67
2019-05-07T05:54:42.461Z,6.89
2019-05-07T05:57:35.490Z,6.74
2019-05-07T06:00:38.583Z,6.60
2019-05-07T06:03:32.345Z,6.81
2019-05-07T06:06:14.763Z,6.93
2019-05-07T06:08:52.630Z,6.96
2019-05-07T06:11:55.866Z,7.26
2019-05-07T06:14:42.500Z,7.43
2019-05-07T06:17:36.905Z,7.49
2019-05-07T06:20:33.903Z,7.37
2019-05-07T06:23:23.201Z,7.12
2019-05-07T06:25:54.871Z,7.24
2019-05-07T06:28:26.619Z,7.37
2019-05-07T06:30:58.342Z,7.75
2019-05-07T06:33:32.413Z,7.90
2019-05-07T06:36:04.568Z,7.77
2019-05-07T06:38:42.940Z,7.58
2019-05-07T06:41:25.124Z,7.80
2019-05-07T06:44:02.063Z,7.73
2019-05-07T06:46:34.265Z,7.90
2019-05-07T06:49:08.510Z,8.28
2019-05-07T06:51:41.976Z,8.14
2019-05-07T06:54:13.949Z,8.22
2019-05-07T06:56:45.604Z,8.51
2019-05-07T06:59:26.163Z,8.10
2019-05-07T07:02:16.559Z,8.48
2019-05-07T07:04:55.286Z,8.53
2019-05-07T07:07:42.282Z,7.98
2019-05-07T07:10:25.035Z,7.82
2019-05-07T07:12:56.669Z,8.03
2019-05-07T07:15:28.214Z,8.58
2019-05-07T07:17:59.980Z,8.70
2019-05-07T07:20:32.666Z,8.74
2019-05-07T07:23:04.677Z,9.16
2019-05-07T07:25:36.499Z,9.53
2019-05-07T07:28:08.959Z,9.40
2019-05-07T07:30:54.328Z,9.85
2019-05-07T07:33:28.710Z,9.43
2019-05-07T07:36:02.477Z,8.96
2019-05-07T07:38:35.474Z,8.91
2019-05-07T07:41:22.321Z,9.19
2019-05-07T07:43:54.215Z,8.54
2019-05-07T07:46:25.881Z,9.51
2019-05-07T07:49:07.859Z,9.82
2019-05-07T07:51:40.586Z,10.01
2019-05-07T07:54:05.025Z,9.45
2019-05-07T07:56:52.969Z,9.34
2019-05-07T07:59:52.948Z,9.10
2019-05-07T08:02:32.231Z,8.97
2019-05-07T08:05:03.093Z,9.88
2019-05-07T08:07:34.833Z,9.04
2019-05-07T08:10:06.673Z,8.85
2019-05-07T08:12:42.066Z,10.21
2019-05-07T08:15:20.390Z,10.56
2019-05-07T08:17:46.552Z,11.01
2019-05-07T08:20:19.286Z,10.77
2019-05-07T08:22:52.623Z,10.42
2019-05-07T08:25:42.694Z,10.23
2019-05-07T08:28:14.474Z,10.18
2019-05-07T08:30:54.230Z,9.85
2019-05-07T08:33:32.311Z,9.56
2019-05-07T08:36:17.254Z,9.42
2019-05-07T08:38:53.243Z,10.14
2019-05-07T08:41:26.049Z,11.13
2019-05-07T08:44:15.095Z,10.17
2019-05-07T08:47:03.854Z,9.76
2019-05-07T08:49:39.854Z,10.03
2019-05-07T08:52:12.020Z,9.97
2019-05-07T08:54:44.330Z,9.55
2019-05-07T08:57:16.123Z,9.50
2019-05-07T09:00:00.120Z,9.50
2019-05-07T09:02:22.272Z,9.55
2019-05-07T09:04:54.023Z,9.83
2019-05-07T09:07:25.986Z,10.84
2019-05-07T09:09:58.220Z,11.87
2019-05-07T09:12:31.699Z,11.62
2019-05-07T09:15:05.260Z,11.51
2019-05-07T09:17:36.596Z,10.66
2019-05-07T09:20:09.303Z,10.00
2019-05-07T09:22:42.743Z,9.97
2019-05-07T09:25:14.907Z,11.29
2019-05-07T09:27:48.203Z,11.88
2019-05-07T09:30:56.787Z,12.51
2019-05-07T09:33:42.317Z,11.97
2019-05-07T09:36:22.848Z,11.49
2019-05-07T09:38:59.341Z,10.27
2019-05-07T09:41:32.587Z,10.12
2019-05-07T09:44:03.311Z,10.04
2019-05-07T09:46:34.905Z,11.10
2019-05-07T09:49:07.142Z,11.83
2019-05-07T09:51:38.660Z,11.46
2019-05-07T09:54:12.717Z,11.64
2019-05-07T09:56:44.432Z,11.36
2019-05-07T09:59:16.316Z,10.92
2019-05-07T10:01:47.948Z,10.94
2019-05-07T10:04:19.313Z,10.41
2019-05-07T10:06:51.898Z,10.66
2019-05-07T10:09:23.659Z,11.90
2019-05-07T10:12:06.752Z,12.39
2019-05-07T10:14:38.432Z,13.37
2019-05-07T10:17:33.451Z,12.74
2019-05-07T10:20:18.232Z,13.15
2019-05-07T10:22:42.883Z,13.22
2019-05-07T10:25:14.234Z,13.22
2019-05-07T10:27:47.906Z,13.22
2019-05-07T10:30:21.714Z,12.45
2019-05-07T10:32:52.851Z,12.54
2019-05-07T10:35:23.992Z,12.33
2019-05-07T10:37:56.681Z,12.52
2019-05-07T10:40:28.460Z,13.71
2019-05-07T10:43:00.324Z,12.23
2019-05-07T10:45:51.967Z,12.08
2019-05-07T10:48:46.419Z,11.81
2019-05-07T10:51:18.293Z,11.70
2019-05-07T10:53:51.680Z,11.36
2019-05-07T10:56:22.607Z,11.22
2019-05-07T10:58:54.094Z,11.34
2019-05-07T11:01:38.117Z,11.88
2019-05-07T11:04:09.897Z,11.61
2019-05-07T11:06:41.904Z,11.56
2019-05-07T11:09:13.896Z,12.63
2019-05-07T11:11:46.032Z,11.83
2019-05-07T11:14:17.725Z,11.87
2019-05-07T11:17:11.955Z,12.71
2019-05-07T11:19:43.322Z,12.43
2019-05-07T11:22:15.839Z,11.76
2019-05-07T11:24:47.088Z,11.10
2019-05-07T11:27:18.902Z,11.40
2019-05-07T11:29:50.834Z,11.52
2019-05-07T11:32:22.350Z,12.75
2019-05-07T11:34:56.378Z,13.58
2019-05-07T11:37:27.992Z,14.45
2019-05-07T11:39:59.959Z,15.10
2019-05-07T11:43:06.100Z,14.58
2019-05-07T11:46:01.982Z,14.93
2019-05-07T11:48:36.402Z,14.91
2019-05-07T11:51:23.323Z,12.99
2019-05-07T11:54:14.756Z,13.17
2019-05-07T11:56:46.246Z,12.94
2019-05-07T11:59:17.797Z,13.43
2019-05-07T12:01:53.515Z,14.90
2019-05-07T12:04:27.859Z,13.98
2019-05-07T12:06:58.956Z,13.61
2019-05-07T12:09:30.741Z,13.36
2019-05-07T12:12:02.665Z,13.05
2019-05-07T12:14:35.102Z,13.79
2019-05-07T12:17:06.357Z,13.90
2019-05-07T12:19:37.620Z,13.72
2019-05-07T12:22:08.933Z,12.94
2019-05-07T12:24:41.879Z,12.98
2019-05-07T12:27:13.375Z,14.14
2019-05-07T12:29:47.692Z,14.55
2019-05-07T12:32:28.725Z,14.00
2019-05-07T12:35:04.725Z,14.93
2019-05-07T12:37:35.969Z,14.94
2019-05-07T12:40:07.812Z,13.59
2019-05-07T12:42:39.647Z,14.12
2019-05-07T12:45:12.606Z,14.19
2019-05-07T12:47:44.837Z,14.32
2019-05-07T12:50:16.800Z,13.90
2019-05-07T12:52:56.546Z,13.56
2019-05-07T12:55:39.264Z,13.56
2019-05-07T12:58:12.616Z,14.49
2019-05-07T13:00:59.607Z,14.20
2019-05-07T13:03:54.367Z,13.40
2019-05-07T13:06:26.855Z,13.67
2019-05-07T13:09:01.156Z,13.61
2019-05-07T13:11:34.691Z,14.52
2019-05-07T13:14:06.624Z,14.92
2019-05-07T13:16:39.521Z,13.69
2019-05-07T13:19:13.096Z,14.54
2019-05-07T13:21:49.617Z,14.67
2019-05-07T13:24:18.268Z,14.82
2019-05-07T13:26:51.800Z,15.06
2019-05-07T13:29:23.508Z,14.75
2019-05-07T13:31:55.582Z,15.22
2019-05-07T13:34:27.227Z,15.22
2019-05-07T13:37:03.130Z,13.96
2019-05-07T13:39:57.167Z,13.41
2019-05-07T13:42:43.924Z,13.76
2019-05-07T13:45:37.581Z,14.10
2019-05-07T13:48:15.571Z,14.30
2019-05-07T13:50:47.682Z,14.46
2019-05-07T13:53:20.038Z,14.56
2019-05-07T13:55:51.438Z,14.85
2019-05-07T13:58:23.135Z,14.60
2019-05-07T14:01:04.933Z,15.32
2019-05-07T14:03:36.126Z,14.93
2019-05-07T14:06:07.439Z,15.18
2019-05-07T14:08:42.366Z,14.93
2019-05-07T14:11:13.756Z,15.35
2019-05-07T14:13:46.140Z,14.80
2019-05-07T14:16:18.007Z,14.64
2019-05-07T14:18:49.620Z,14.77
2019-05-07T14:21:21.956Z,14.18
2019-05-07T14:23:53.774Z,13.26
2019-05-07T14:26:25.274Z,14.29
2019-05-07T14:28:56.812Z,14.63
2019-05-07T14:31:28.630Z,14.98
2019-05-07T14:34:13.393Z,15.35
2019-05-07T14:36:57.842Z,14.94
2019-05-07T14:39:36.185Z,14.99
2019-05-07T14:42:09.835Z,15.46
2019-05-07T14:44:52.810Z,14.18
2019-05-07T14:47:24.493Z,14.16
2019-05-07T14:49:55.892Z,14.91
2019-05-07T14:52:33.066Z,14.71
2019-05-07T14:55:05.030Z,14.23
2019-05-07T14:57:36.074Z,15.33
2019-05-07T15:00:07.760Z,15.30
2019-05-07T15:02:41.929Z,15.65
2019-05-07T15:05:12.964Z,15.16
2019-05-07T15:08:07.041Z,14.96
2019-05-07T15:10:27.242Z,15.37
2019-05-07T15:12:59.121Z,14.36
2019-05-07T15:15:31.175Z,15.11
2019-05-07T15:18:08.647Z,14.83
2019-05-07T15:20:41.954Z,14.51
2019-05-07T15:23:18.647Z,14.55
2019-05-07T15:25:51.715Z,14.21
2019-05-07T15:28:23.921Z,14.92
2019-05-07T15:31:02.942Z,14.52
2019-05-07T15:33:34.681Z,13.62
2019-05-07T15:36:06.616Z,13.93
2019-05-07T15:38:39.936Z,14.24
2019-05-07T15:41:11.627Z,14.17
2019-05-07T15:43:45.847Z,13.68
2019-05-07T15:46:16.326Z,13.56
2019-05-07T15:48:47.796Z,13.15
2019-05-07T15:51:19.373Z,13.87
2019-05-07T15:53:53.646Z,14.34
2019-05-07T15:56:25.613Z,14.33
2019-05-07T15:58:57.467Z,14.32
2019-05-07T16:01:29.359Z,14.39
2019-05-07T16:04:02.775Z,14.32
2019-05-07T16:06:36.225Z,14.92
2019-05-07T16:09:08.904Z,14.42
2019-05-07T16:11:43.046Z,14.43
2019-05-07T16:14:26.860Z,14.94
2019-05-07T16:17:13.666Z,14.90
2019-05-07T16:19:46.236Z,14.40
2019-05-07T16:22:24.779Z,14.71
2019-05-07T16:24:56.057Z,14.96
2019-05-07T16:27:27.719Z,14.72
2019-05-07T16:29:59.621Z,14.32
2019-05-07T16:32:32.856Z,13.79
2019-05-07T16:35:05.681Z,13.92
2019-05-07T16:37:37.772Z,14.41
2019-05-07T16:40:09.527Z,14.45
2019-05-07T16:42:42.901Z,14.33
2019-05-07T16:45:15.282Z,13.94
2019-05-07T16:47:47.142Z,14.23
2019-05-07T16:50:18.910Z,14.24
2019-05-07T16:52:52.488Z,14.12
2019-05-07T16:55:28.562Z,14.47
2019-05-07T16:58:23.484Z,14.33
2019-05-07T17:01:00.172Z,14.15
2019-05-07T17:03:39.857Z,14.61
2019-05-07T17:06:12.522Z,14.32
2019-05-07T17:08:54.275Z,14.40
2019-05-07T17:11:25.913Z,14.31
2019-05-07T17:13:57.556Z,14.21
2019-05-07T17:16:31.580Z,13.83
2019-05-07T17:19:03.031Z,13.50
2019-05-07T17:21:35.278Z,13.47
2019-05-07T17:24:06.849Z,13.59
2019-05-07T17:26:38.966Z,13.25
2019-05-07T17:29:12.037Z,13.31
2019-05-07T17:31:44.164Z,13.22
2019-05-07T17:34:16.180Z,13.12
2019-05-07T17:36:47.977Z,13.29
2019-05-07T17:39:20.066Z,13.24
2019-05-07T17:41:52.546Z,13.16
2019-05-07T17:44:24.293Z,13.54
2019-05-07T17:47:01.923Z,13.45
2019-05-07T17:49:36.306Z,13.57
2019-05-07T17:52:09.970Z,13.18
2019-05-07T17:54:42.370Z,13.00
2019-05-07T17:57:15.920Z,13.22
2019-05-07T17:59:47.879Z,13.33
2019-05-07T18:02:29.589Z,12.76
2019-05-07T18:05:02.821Z,12.87
2019-05-07T18:07:36.824Z,12.55
2019-05-07T18:10:09.927Z,12.60
2019-05-07T18:12:43.532Z,12.13
2019-05-07T18:15:15.887Z,12.30
2019-05-07T18:17:53.053Z,12.31
2019-05-07T18:20:24.435Z,12.21
2019-05-07T18:22:56.378Z,12.09
2019-05-07T18:25:28.391Z,12.24
2019-05-07T18:28:01.866Z,12.08
2019-05-07T18:30:33.749Z,11.85
2019-05-07T18:33:29.686Z,11.74
2019-05-07T18:36:02.809Z,12.08
2019-05-07T18:38:34.835Z,12.02
2019-05-07T18:41:06.858Z,11.90
2019-05-07T18:43:39.034Z,11.90
2019-05-07T18:46:12.754Z,11.90
2019-05-07T18:48:45.004Z,12.29
2019-05-07T18:51:16.751Z,11.85
2019-05-07T18:53:49.136Z,11.85
2019-05-07T18:56:22.146Z,11.79
2019-05-07T18:58:54.208Z,11.83
2019-05-07T19:01:27.386Z,11.73
2019-05-07T19:03:59.523Z,11.73
2019-05-07T19:06:32.597Z,11.44
2019-05-07T19:09:05.792Z,11.55
2019-05-07T19:11:39.679Z,11.52
2019-05-07T19:14:13.247Z,11.42
2019-05-07T19:16:45.785Z,11.44
2019-05-07T19:19:17.568Z,11.59
2019-05-07T19:21:49.614Z,11.35
2019-05-07T19:24:25.835Z,11.34
2019-05-07T19:26:55.730Z,11.44
2019-05-07T19:29:27.600Z,11.17
2019-05-07T19:31:59.832Z,11.46
2019-05-07T19:34:32.464Z,11.26
2019-05-07T19:37:04.041Z,11.32
2019-05-07T19:39:36.099Z,11.40
2019-05-07T19:42:08.177Z,11.45
2019-05-07T19:44:42.264Z,11.38
2019-05-07T19:47:14.240Z,11.26
2019-05-07T19:49:46.312Z,11.11
2019-05-07T19:52:18.568Z,11.03
2019-05-07T19:55:00.483Z,11.11
2019-05-07T19:57:28.146Z,11.17
2019-05-07T20:00:00.100Z,10.82
2019-05-07T20:02:37.288Z,10.89
2019-05-07T20:05:08.619Z,11.04
2019-05-07T20:07:42.335Z,11.06
2019-05-07T20:10:15.770Z,11.14
2019-05-07T20:12:47.454Z,10.79
2019-05-07T20:15:19.255Z,10.86
2019-05-07T20:17:52.632Z,10.90
2019-05-07T20:20:24.482Z,10.81
2019-05-07T20:22:59.595Z,10.83
2019-05-07T20:25:33.387Z,10.91
2019-05-07T20:28:04.492Z,10.58
2019-05-07T20:30:36.118Z,10.65
2019-05-07T20:33:07.877Z,10.52
2019-05-07T20:35:41.301Z,10.50
2019-05-07T20:38:13.139Z,10.41
2019-05-07T20:40:45.111Z,10.45
2019-05-07T20:43:17.272Z,10.41
2019-05-07T20:45:49.417Z,10.55
2019-05-07T20:48:22.663Z,10.19
2019-05-07T20:50:54.478Z,10.22
2019-05-07T20:53:43.949Z,10.17
2019-05-07T20:56:16.323Z,10.11
2019-05-07T20:58:48.521Z,9.94
2019-05-07T21:01:22.016Z,10.08
2019-05-07T21:03:54.473Z,9.82
2019-05-07T21:06:26.529Z,9.96
2019-05-07T21:08:58.512Z,9.97
2019-05-07T21:11:32.369Z,10.03
2019-05-07T21:14:03.561Z,9.95
2019-05-07T21:16:35.324Z,10.22
2019-05-07T21:19:06.682Z,9.77
2019-05-07T21:21:38.421Z,9.93
2019-05-07T21:24:09.995Z,9.78
2019-05-07T21:26:42.336Z,9.70
2019-05-07T21:29:15.039Z,9.64
2019-05-07T21:31:47.368Z,9.62
2019-05-07T21:34:19.886Z,9.66
2019-05-07T21:36:52.422Z,9.69
2019-05-07T21:39:24.409Z,9.74
2019-05-07T21:41:56.241Z,9.59
2019-05-07T21:44:28.232Z,9.30
2019-05-07T21:47:01.719Z,9.49
2019-05-07T21:49:34.712Z,9.18
2019-05-07T21:52:06.141Z,9.11
2019-05-07T21:54:59.285Z,9.32
2019-05-07T21:57:55.740Z,8.99
2019-05-07T22:00:45.148Z,9.11
2019-05-07T22:03:18.459Z,9.15
2019-05-07T22:05:51.719Z,9.31
2019-05-07T22:08:23.859Z,9.08
2019-05-07T22:10:55.541Z,8.93
2019-05-07T22:13:28.325Z,9.16
2019-05-07T22:16:02.528Z,9.03
2019-05-07T22:18:34.679Z,8.75
2019-05-07T22:21:06.352Z,8.83
2019-05-07T22:23:38.231Z,8.89
2019-05-07T22:26:20.340Z,8.81
2019-05-07T22:28:43.277Z,8.83
2019-05-07T22:31:28.238Z,8.99
2019-05-07T22:34:18.758Z,8.64
2019-05-07T22:36:52.091Z,8.51
2019-05-07T22:39:37.695Z,8.65
2019-05-07T22:42:11.863Z,8.83
2019-05-07T22:44:43.971Z,8.73
2019-05-07T22:47:22.723Z,8.45
2019-05-07T22:49:55.673Z,8.63
2019-05-07T22:52:27.842Z,8.64
2019-05-07T22:54:59.705Z,8.74
2019-05-07T22:57:41.879Z,8.71
2019-05-07T23:00:22.633Z,8.65
2019-05-07T23:02:54.042Z,8.83
2019-05-07T23:05:25.986Z,8.49
2019-05-07T23:07:57.955Z,8.26
2019-05-07T23:10:29.825Z,8.34
2019-05-07T23:13:02.278Z,8.46
2019-05-07T23:15:34.064Z,8.21
2019-05-07T23:18:05.789Z,8.12
2019-05-07T23:20:37.845Z,8.29
2019-05-07T23:23:09.683Z,8.30
2019-05-07T23:25:43.115Z,8.01
2019-05-07T23:28:15.186Z,8.02
2019-05-07T23:30:47.039Z,7.81
2019-05-07T23:33:19.110Z,7.88
2019-05-07T23:35:52.793Z,7.90
2019-05-07T23:38:24.687Z,8.02
2019-05-07T23:41:04.310Z,7.78
2019-05-07T23:43:36.882Z,7.62
2019-05-07T23:46:08.857Z,7.72
2019-05-07T23:48:42.698Z,7.86
2019-05-07T23:51:14.434Z,7.86
2019-05-07T23:53:46.565Z,7.99
2019-05-07T23:56:18.016Z,7.91
2019-05-07T23:58:49.931Z,7.85
